< Cyclone 198008 1980 Season Cyclone 198010 >
Cyclone 198009 (RUTH)
General InformationTrack Information on Google Maps || ResourceGoogle EarthGE AnimationAtom FeedGeoJSON
Detalied Best Track (Time Zone = UTC)
Year Month Day Hour Lat. Long. Pressure (hPa) Wind (kt) Class Image Chart
1980 2 11 00 -18.7 150.4 1003 0 0 -- --
1980 2 11 06 -19.8 151.1 1003 0 0 -- --
1980 2 11 12 -19.2 151.3 1003 0 0 -- --
1980 2 11 18 -18.1 152.2 999 0 0 -- --
1980 2 12 00 -18.0 152.7 999 0 0 -- --
1980 2 12 06 -18.1 154.0 996 0 0 -- --
1980 2 12 12 -18.2 155.3 992 0 0 -- --
1980 2 12 18 -18.3 156.9 988 0 0 -- --
1980 2 13 00 -18.6 158.6 984 0 0 -- --
1980 2 13 06 -20.1 159.5 980 0 0 -- --
1980 2 13 12 -20.1 158.3 980 0 0 -- --
1980 2 13 18 -20.2 158.2 984 0 0 -- --
1980 2 14 00 -20.3 158.3 986 0 0 -- --
1980 2 14 06 -20.4 158.4 991 0 0 -- --
1980 2 14 12 -21.4 158.3 992 0 0 -- --
1980 2 14 18 -21.1 157.8 992 0 0 -- --
1980 2 15 00 -20.7 157.7 994 0 0 -- --
1980 2 15 06 -20.4 157.7 994 0 0 -- --
1980 2 15 12 -20.2 157.7 995 0 0 -- --
1980 2 15 18 -20.0 157.8 996 0 0 -- --
1980 2 16 00 -19.8 158.1 997 0 0 -- --
1980 2 16 06 -19.9 158.8 998 0 0 -- --
1980 2 16 12 -20.7 159.4 998 0 0 -- --
1980 2 16 18 -21.2 159.8 998 0 0 -- --
1980 2 17 00 -21.4 160.0 999 0 0 -- --
1980 2 17 06 -21.9 160.4 1000 0 0 -- --
1980 2 17 12 -22.3 160.1 1000 0 0 -- --
1980 2 17 18 -22.4 159.5 1001 0 0 -- --
1980 2 18 00 -22.6 158.3 1002 0 0 -- --
1980 2 18 06 -22.7 157.4 1002 0 0 -- --
1980 2 18 12 -22.3 156.8 1003 0 0 -- --
1980 2 18 18 -20.4 155.8 1003 0 0 -- --
< Cyclone 198008 1980 Season Cyclone 198010 >

Help